Погода Блантайрна неделю

Южная Провинция, Малави

25 - 31 июля
  • 25июля
    Сегодня
    +12°
    +27°
    Ясно и безоблачно
    ВремяПогодаТемператураВлажностьДавлениеВетер, м/сВероятность осадков
    02:00Ясно и безоблачно+15°C32 %674 мм1.2 м/с5 %
    05:00Ясно и безоблачно+14°C27 %673 мм1.3 м/с5 %
    08:00Ясно и безоблачно+22°C25 %676 мм0.7 м/с5 %
    11:00Ясно и безоблачно+25°C17 %677 мм3.0 м/с5 %
    14:00Ясно и безоблачно+27°C13 %676 мм3.4 м/с5 %
    17:00Ясно и безоблачно+24°C20 %675 мм2.6 м/с5 %
    20:00Ясно и безоблачно+21°C25 %675 мм3.1 м/с5 %
    23:00Ясно и безоблачно+18°C27 %674 мм3.6 м/с5 %
  • 26июля
    Пятница
    +11°
    +27°
    Ясно и безоблачно
    ВремяПогодаТемператураВлажностьДавлениеВетер, м/сВероятность осадков
    02:00Ясно и безоблачно+17°C24 %673 мм3.3 м/с5 %
    05:00Ясно и безоблачно+13°C31 %672 мм1.3 м/с5 %
    08:00Ясно и безоблачно+21°C26 %677 мм0.3 м/с5 %
    11:00Ясно и безоблачно+25°C20 %677 мм1.0 м/с5 %
    14:00Ясно и безоблачно+27°C22 %676 мм1.9 м/с5 %
    17:00Ясно и безоблачно+24°C24 %676 мм2.3 м/с5 %
    20:00Ясно и безоблачно+20°C38 %676 мм3.6 м/с5 %
    23:00Ясно и безоблачно+17°C45 %675 мм3.2 м/с5 %
  • 27июля
    Суббота
    +12°
    +28°
    Ясно и безоблачно
    ВремяПогодаТемператураВлажностьДавлениеВетер, м/сВероятность осадков
    02:00Ясно и безоблачно+15°C49 %674 мм2.2 м/с5 %
    05:00Ясно и безоблачно+11°C57 %673 мм2.3 м/с5 %
    08:00Ясно и безоблачно+20°C52 %677 мм2.3 м/с5 %
    11:00Ясно и безоблачно+25°C25 %678 мм0.6 м/с5 %
    14:00Ясно и безоблачно+27°C20 %676 мм1.4 м/с5 %
    17:00Ясно и безоблачно+25°C21 %676 мм2.0 м/с5 %
    20:00Ясно и безоблачно+19°C30 %675 мм3.4 м/с5 %
    23:00Ясно и безоблачно+17°C39 %675 мм2.6 м/с5 %
  • 28июля
    Воскресенье
    +14°
    +29°
    Ясно и безоблачно
    ВремяПогодаТемператураВлажностьДавлениеВетер, м/сВероятность осадков
    02:00Ясно и безоблачно+16°C45 %673 мм2.0 м/с5 %
    05:00Ясно и безоблачно+13°C47 %673 мм1.8 м/с5 %
    08:00Ясно и безоблачно+22°C33 %677 мм2.4 м/с5 %
    11:00Ясно и безоблачно+27°C19 %677 мм1.3 м/с5 %
    14:00Ясно и безоблачно+29°C13 %675 мм0.6 м/с5 %
    17:00Ясно и безоблачно+26°C20 %675 мм1.4 м/с5 %
    20:00Ясно и безоблачно+20°C28 %674 мм2.3 м/с5 %
    23:00Ясно и безоблачно+18°C32 %673 мм2.3 м/с5 %
Мы используем cookies
Соглашаюсь